sensor_id;sensor_type;location;lat;lon;timestamp;pressure;altitude;pressure_sealevel;temperature;humidity
66945;BME280;53853;51.982;5.928;2023-12-20T00:00:07;101423.69;;;8.29;86.96
66945;BME280;53853;51.982;5.928;2023-12-20T00:02:37;101418.25;;;8.31;86.17
66945;BME280;53853;51.982;5.928;2023-12-20T00:05:09;101413.31;;;8.26;86.18
66945;BME280;53853;51.982;5.928;2023-12-20T00:07:39;101419.59;;;8.25;86.50
66945;BME280;53853;51.982;5.928;2023-12-20T00:10:09;101405.72;;;8.22;86.14
66945;BME280;53853;51.982;5.928;2023-12-20T00:12:40;101413.94;;;8.19;86.33
66945;BME280;53853;51.982;5.928;2023-12-20T00:15:10;101415.00;;;8.16;86.29
66945;BME280;53853;51.982;5.928;2023-12-20T00:17:40;101424.91;;;8.14;86.32
66945;BME280;53853;51.982;5.928;2023-12-20T00:20:13;101411.63;;;8.14;86.73
66945;BME280;53853;51.982;5.928;2023-12-20T00:22:42;101422.13;;;8.15;86.57
66945;BME280;53853;51.982;5.928;2023-12-20T00:25:13;101415.00;;;8.16;86.57
66945;BME280;53853;51.982;5.928;2023-12-20T00:27:43;101413.81;;;8.20;86.84
66945;BME280;53853;51.982;5.928;2023-12-20T00:30:13;101418.63;;;8.26;87.07
66945;BME280;53853;51.982;5.928;2023-12-20T00:32:43;101401.84;;;8.26;86.71
66945;BME280;53853;51.982;5.928;2023-12-20T00:35:16;101401.00;;;8.25;86.59
66945;BME280;53853;51.982;5.928;2023-12-20T00:37:46;101401.25;;;8.22;86.39
66945;BME280;53853;51.982;5.928;2023-12-20T00:40:16;101399.53;;;8.21;85.67
66945;BME280;53853;51.982;5.928;2023-12-20T00:42:46;101401.97;;;8.13;85.19
66945;BME280;53853;51.982;5.928;2023-12-20T00:45:16;101410.41;;;8.07;85.21
66945;BME280;53853;51.982;5.928;2023-12-20T00:47:46;101407.97;;;8.04;85.21
66945;BME280;53853;51.982;5.928;2023-12-20T00:50:18;101416.06;;;8.02;85.17
66945;BME280;53853;51.982;5.928;2023-12-20T00:52:48;101407.50;;;7.98;85.10
66945;BME280;53853;51.982;5.928;2023-12-20T00:55:18;101412.31;;;7.93;85.23
66945;BME280;53853;51.982;5.928;2023-12-20T00:57:48;101414.22;;;7.91;85.51
66945;BME280;53853;51.982;5.928;2023-12-20T01:00:18;101406.41;;;7.90;85.35
66945;BME280;53853;51.982;5.928;2023-12-20T01:02:48;101409.19;;;7.88;85.31
66945;BME280;53853;51.982;5.928;2023-12-20T01:05:21;101409.19;;;7.88;85.64
66945;BME280;53853;51.982;5.928;2023-12-20T01:07:52;101410.16;;;7.87;85.49
66945;BME280;53853;51.982;5.928;2023-12-20T01:10:21;101415.56;;;7.86;85.57
66945;BME280;53853;51.982;5.928;2023-12-20T01:12:55;101419.28;;;7.83;85.58
66945;BME280;53853;51.982;5.928;2023-12-20T01:15:24;101410.63;;;7.81;85.83
66945;BME280;53853;51.982;5.928;2023-12-20T01:17:54;101403.59;;;7.80;85.75
66945;BME280;53853;51.982;5.928;2023-12-20T01:20:28;101396.63;;;7.79;85.75
66945;BME280;53853;51.982;5.928;2023-12-20T01:22:58;101397.69;;;7.76;85.87
66945;BME280;53853;51.982;5.928;2023-12-20T01:25:28;101410.13;;;7.76;85.95
66945;BME280;53853;51.982;5.928;2023-12-20T01:27:58;101400.22;;;7.78;85.83
66945;BME280;53853;51.982;5.928;2023-12-20T01:30:28;101396.75;;;7.77;86.21
66945;BME280;53853;51.982;5.928;2023-12-20T01:32:59;101401.19;;;7.77;86.11
66945;BME280;53853;51.982;5.928;2023-12-20T01:35:32;101403.13;;;7.75;85.84
66945;BME280;53853;51.982;5.928;2023-12-20T01:38:02;101401.69;;;7.71;85.87
66945;BME280;53853;51.982;5.928;2023-12-20T01:40:32;101402.88;;;7.67;85.74
66945;BME280;53853;51.982;5.928;2023-12-20T01:43:06;101397.91;;;7.62;85.54
66945;BME280;53853;51.982;5.928;2023-12-20T01:45:36;101391.13;;;7.58;85.70
66945;BME280;53853;51.982;5.928;2023-12-20T01:48:07;101400.91;;;7.57;85.70
66945;BME280;53853;51.982;5.928;2023-12-20T01:50:40;101401.84;;;7.56;85.92
66945;BME280;53853;51.982;5.928;2023-12-20T01:53:12;101409.81;;;7.56;85.86
66945;BME280;53853;51.982;5.928;2023-12-20T01:55:44;101402.84;;;7.55;85.89
66945;BME280;53853;51.982;5.928;2023-12-20T01:58:15;101404.75;;;7.53;85.20
66945;BME280;53853;51.982;5.928;2023-12-20T02:00:47;101415.63;;;7.50;85.55
66945;BME280;53853;51.982;5.928;2023-12-20T02:03:17;101416.44;;;7.51;85.85
66945;BME280;53853;51.982;5.928;2023-12-20T02:05:50;101407.66;;;7.50;85.61
66945;BME280;53853;51.982;5.928;2023-12-20T02:08:20;101408.50;;;7.51;85.84
66945;BME280;53853;51.982;5.928;2023-12-20T02:10:50;101410.19;;;7.52;85.96
66945;BME280;53853;51.982;5.928;2023-12-20T02:13:20;101404.63;;;7.55;85.87
66945;BME280;53853;51.982;5.928;2023-12-20T02:15:50;101409.94;;;7.55;85.86
66945;BME280;53853;51.982;5.928;2023-12-20T02:18:19;101405.59;;;7.54;85.11
66945;BME280;53853;51.982;5.928;2023-12-20T02:20:52;101410.03;;;7.53;85.30
66945;BME280;53853;51.982;5.928;2023-12-20T02:23:25;101405.59;;;7.54;85.45
66945;BME280;53853;51.982;5.928;2023-12-20T02:25:55;101409.94;;;7.55;85.49
66945;BME280;53853;51.982;5.928;2023-12-20T02:28:25;101405.50;;;7.55;85.51
66945;BME280;53853;51.982;5.928;2023-12-20T02:30:56;101403.56;;;7.57;85.80
66945;BME280;53853;51.982;5.928;2023-12-20T02:33:25;101409.34;;;7.62;85.68
66945;BME280;53853;51.982;5.928;2023-12-20T02:35:55;101401.06;;;7.67;85.67
66945;BME280;53853;51.982;5.928;2023-12-20T02:38:28;101399.16;;;7.69;86.11
66945;BME280;53853;51.982;5.928;2023-12-20T02:40:58;101401.69;;;7.71;86.18
66945;BME280;53853;51.982;5.928;2023-12-20T02:43:28;101399.50;;;7.76;85.97
66945;BME280;53853;51.982;5.928;2023-12-20T02:45:57;101397.69;;;7.76;85.28
66945;BME280;53853;51.982;5.928;2023-12-20T02:48:27;101383.59;;;7.76;85.22
66945;BME280;53853;51.982;5.928;2023-12-20T02:50:57;101389.75;;;7.76;84.95
66945;BME280;53853;51.982;5.928;2023-12-20T02:53:30;101374.88;;;7.74;84.42
66945;BME280;53853;51.982;5.928;2023-12-20T02:55:59;101379.97;;;7.77;84.69
66945;BME280;53853;51.982;5.928;2023-12-20T02:58:29;101368.41;;;7.78;84.70
66945;BME280;53853;51.982;5.928;2023-12-20T03:00:59;101369.13;;;7.80;85.00
66945;BME280;53853;51.982;5.928;2023-12-20T03:03:29;101374.94;;;7.85;85.26
66945;BME280;53853;51.982;5.928;2023-12-20T03:05:59;101370.34;;;7.87;85.15
66945;BME280;53853;51.982;5.928;2023-12-20T03:08:32;101369.28;;;7.90;85.31
66945;BME280;53853;51.982;5.928;2023-12-20T03:11:02;101370.94;;;7.91;85.47
66945;BME280;53853;51.982;5.928;2023-12-20T03:13:31;101377.94;;;7.92;85.41
66945;BME280;53853;51.982;5.928;2023-12-20T03:16:01;101371.53;;;7.94;85.66
66945;BME280;53853;51.982;5.928;2023-12-20T03:18:37;101371.78;;;7.91;85.38
66945;BME280;53853;51.982;5.928;2023-12-20T03:21:07;101359.72;;;7.87;85.19
66945;BME280;53853;51.982;5.928;2023-12-20T03:23:39;101358.25;;;7.83;85.26
66945;BME280;53853;51.982;5.928;2023-12-20T03:26:10;101363.81;;;7.80;84.82
66945;BME280;53853;51.982;5.928;2023-12-20T03:28:40;101355.38;;;7.75;84.79
66945;BME280;53853;51.982;5.928;2023-12-20T03:31:10;101354.88;;;7.70;84.72
66945;BME280;53853;51.982;5.928;2023-12-20T03:33:40;101352.47;;;7.67;84.49
66945;BME280;53853;51.982;5.928;2023-12-20T03:36:10;101346.44;;;7.65;84.47
66945;BME280;53853;51.982;5.928;2023-12-20T03:38:42;101348.69;;;7.58;84.55
66945;BME280;53853;51.982;5.928;2023-12-20T03:41:12;101351.47;;;7.56;84.51
66945;BME280;53853;51.982;5.928;2023-12-20T03:43:42;101357.63;;;7.57;84.98
66945;BME280;53853;51.982;5.928;2023-12-20T03:46:12;101354.00;;;7.58;85.04
66945;BME280;53853;51.982;5.928;2023-12-20T03:48:42;101343.28;;;7.59;85.19
66945;BME280;53853;51.982;5.928;2023-12-20T03:51:12;101351.97;;;7.61;85.05
66945;BME280;53853;51.982;5.928;2023-12-20T03:53:44;101346.78;;;7.60;85.30
66945;BME280;53853;51.982;5.928;2023-12-20T03:56:14;101358.25;;;7.60;85.42
66945;BME280;53853;51.982;5.928;2023-12-20T03:58:44;101366.31;;;7.59;85.18
66945;BME280;53853;51.982;5.928;2023-12-20T04:01:14;101348.69;;;7.58;85.33
66945;BME280;53853;51.982;5.928;2023-12-20T04:03:44;101355.59;;;7.60;85.26
66945;BME280;53853;51.982;5.928;2023-12-20T04:06:17;101350.41;;;7.59;85.40
66945;BME280;53853;51.982;5.928;2023-12-20T04:08:49;101346.69;;;7.61;85.39
66945;BME280;53853;51.982;5.928;2023-12-20T04:11:19;101345.69;;;7.62;85.69
66945;BME280;53853;51.982;5.928;2023-12-20T04:13:49;101346.69;;;7.61;85.66
66945;BME280;53853;51.982;5.928;2023-12-20T04:16:19;101355.47;;;7.62;85.97
66945;BME280;53853;51.982;5.928;2023-12-20T04:18:48;101351.00;;;7.62;85.91
66945;BME280;53853;51.982;5.928;2023-12-20T04:21:18;101348.00;;;7.67;85.87
66945;BME280;53853;51.982;5.928;2023-12-20T04:23:51;101355.84;;;7.69;85.71
66945;BME280;53853;51.982;5.928;2023-12-20T04:26:20;101349.69;;;7.68;85.74
66945;BME280;53853;51.982;5.928;2023-12-20T04:28:50;101355.84;;;7.69;85.56
66945;BME280;53853;51.982;5.928;2023-12-20T04:31:20;101344.38;;;7.68;85.40
66945;BME280;53853;51.982;5.928;2023-12-20T04:33:50;101341.75;;;7.68;85.45
66945;BME280;53853;51.982;5.928;2023-12-20T04:36:20;101347.63;;;7.72;84.88
66945;BME280;53853;51.982;5.928;2023-12-20T04:38:54;101356.44;;;7.72;85.17
66945;BME280;53853;51.982;5.928;2023-12-20T04:41:24;101354.53;;;7.74;85.25
66945;BME280;53853;51.982;5.928;2023-12-20T04:43:54;101348.13;;;7.77;85.40
66945;BME280;53853;51.982;5.928;2023-12-20T04:46:24;101348.13;;;7.77;85.57
66945;BME280;53853;51.982;5.928;2023-12-20T04:48:54;101346.22;;;7.79;85.82
66945;BME280;53853;51.982;5.928;2023-12-20T04:51:24;101356.47;;;7.84;85.72
66945;BME280;53853;51.982;5.928;2023-12-20T04:53:56;101352.13;;;7.83;84.98
66945;BME280;53853;51.982;5.928;2023-12-20T04:56:26;101345.00;;;7.83;85.12
66945;BME280;53853;51.982;5.928;2023-12-20T04:58:56;101351.88;;;7.86;85.17
66945;BME280;53853;51.982;5.928;2023-12-20T05:01:26;101347.19;;;7.89;85.60
66945;BME280;53853;51.982;5.928;2023-12-20T05:03:56;101345.88;;;7.95;85.55
66945;BME280;53853;51.982;5.928;2023-12-20T05:06:25;101344.75;;;7.97;85.71
66945;BME280;53853;51.982;5.928;2023-12-20T05:08:58;101346.94;;;8.04;85.94
66945;BME280;53853;51.982;5.928;2023-12-20T05:11:28;101342.09;;;8.09;85.93
66945;BME280;53853;51.982;5.928;2023-12-20T05:13:57;101336.56;;;8.12;85.71
66945;BME280;53853;51.982;5.928;2023-12-20T05:16:27;101323.16;;;8.13;85.76
66945;BME280;53853;51.982;5.928;2023-12-20T05:18:57;101323.66;;;8.19;85.20
66945;BME280;53853;51.982;5.928;2023-12-20T05:21:28;101320.00;;;8.20;84.16
66945;BME280;53853;51.982;5.928;2023-12-20T05:24:01;101315.56;;;8.20;84.10
66945;BME280;53853;51.982;5.928;2023-12-20T05:26:31;101315.31;;;8.23;83.93
66945;BME280;53853;51.982;5.928;2023-12-20T05:29:01;101312.66;;;8.23;84.03
66945;BME280;53853;51.982;5.928;2023-12-20T05:31:30;101326.66;;;8.25;83.46
66945;BME280;53853;51.982;5.928;2023-12-20T05:34:00;101322.06;;;8.27;83.04
66945;BME280;53853;51.982;5.928;2023-12-20T05:36:30;101322.06;;;8.27;83.26
66945;BME280;53853;51.982;5.928;2023-12-20T05:39:03;101324.59;;;8.29;83.13
66945;BME280;53853;51.982;5.928;2023-12-20T05:41:34;101321.81;;;8.30;82.31
66945;BME280;53853;51.982;5.928;2023-12-20T05:44:04;101327.25;;;8.29;82.32
66945;BME280;53853;51.982;5.928;2023-12-20T05:46:34;101335.09;;;8.30;82.21
66945;BME280;53853;51.982;5.928;2023-12-20T05:49:04;101334.25;;;8.30;82.02
66945;BME280;53853;51.982;5.928;2023-12-20T05:51:34;101336.78;;;8.31;82.21
66945;BME280;53853;51.982;5.928;2023-12-20T05:54:06;101338.34;;;8.34;82.37
66945;BME280;53853;51.982;5.928;2023-12-20T05:56:36;101339.91;;;8.37;82.89
66945;BME280;53853;51.982;5.928;2023-12-20T05:59:06;101347.63;;;8.40;82.82
66945;BME280;53853;51.982;5.928;2023-12-20T06:01:36;101343.03;;;8.42;82.35
66945;BME280;53853;51.982;5.928;2023-12-20T06:04:06;101349.13;;;8.44;82.62
66945;BME280;53853;51.982;5.928;2023-12-20T06:06:41;101346.34;;;8.45;82.77
66945;BME280;53853;51.982;5.928;2023-12-20T06:09:13;101354.16;;;8.47;82.32
66945;BME280;53853;51.982;5.928;2023-12-20T06:11:43;101346.19;;;8.47;81.70
66945;BME280;53853;51.982;5.928;2023-12-20T06:14:13;101338.22;;;8.47;82.01
66945;BME280;53853;51.982;5.928;2023-12-20T06:16:43;101341.75;;;8.47;81.35
66945;BME280;53853;51.982;5.928;2023-12-20T06:19:13;101340.03;;;8.46;81.16
66945;BME280;53853;51.982;5.928;2023-12-20T06:21:43;101339.22;;;8.46;81.43
66945;BME280;53853;51.982;5.928;2023-12-20T06:24:15;101335.56;;;8.47;81.78
66945;BME280;53853;51.982;5.928;2023-12-20T06:26:45;101331.97;;;8.48;82.20
66945;BME280;53853;51.982;5.928;2023-12-20T06:29:15;101341.50;;;8.50;82.40
66945;BME280;53853;51.982;5.928;2023-12-20T06:31:45;101341.38;;;8.52;81.32
66945;BME280;53853;51.982;5.928;2023-12-20T06:34:15;101340.63;;;8.50;80.45
66945;BME280;53853;51.982;5.928;2023-12-20T06:36:45;101331.97;;;8.48;80.93
66945;BME280;53853;51.982;5.928;2023-12-20T06:39:17;101333.66;;;8.49;81.34
66945;BME280;53853;51.982;5.928;2023-12-20T06:41:47;101328.34;;;8.49;81.20
66945;BME280;53853;51.982;5.928;2023-12-20T06:44:17;101326.66;;;8.48;80.99
66945;BME280;53853;51.982;5.928;2023-12-20T06:46:47;101317.72;;;8.49;81.32
66945;BME280;53853;51.982;5.928;2023-12-20T06:49:16;101320.38;;;8.49;81.17
66945;BME280;53853;51.982;5.928;2023-12-20T06:51:47;101321.22;;;8.49;81.26
66945;BME280;53853;51.982;5.928;2023-12-20T06:54:19;101323.75;;;8.51;80.97
66945;BME280;53853;51.982;5.928;2023-12-20T06:56:49;101328.34;;;8.49;80.47
66945;BME280;53853;51.982;5.928;2023-12-20T06:59:19;101322.78;;;8.52;81.27
66945;BME280;53853;51.982;5.928;2023-12-20T07:01:49;101316.47;;;8.53;81.02
66945;BME280;53853;51.982;5.928;2023-12-20T07:04:19;101311.28;;;8.51;80.07
66945;BME280;53853;51.982;5.928;2023-12-20T07:06:49;101313.25;;;8.49;79.64
66945;BME280;53853;51.982;5.928;2023-12-20T07:09:26;101312.66;;;8.46;79.85
66945;BME280;53853;51.982;5.928;2023-12-20T07:11:56;101313.47;;;8.46;80.34
66945;BME280;53853;51.982;5.928;2023-12-20T07:14:26;101302.88;;;8.46;80.29
66945;BME280;53853;51.982;5.928;2023-12-20T07:16:56;101304.69;;;8.46;79.87
66945;BME280;53853;51.982;5.928;2023-12-20T07:19:25;101302.25;;;8.43;80.04
66945;BME280;53853;51.982;5.928;2023-12-20T07:21:55;101318.78;;;8.46;80.23
66945;BME280;53853;51.982;5.928;2023-12-20T07:24:28;101317.97;;;8.46;79.92
66945;BME280;53853;51.982;5.928;2023-12-20T07:26:58;101314.31;;;8.47;80.35
66945;BME280;53853;51.982;5.928;2023-12-20T07:29:28;101307.22;;;8.47;79.92
66945;BME280;53853;51.982;5.928;2023-12-20T07:31:58;101314.31;;;8.47;79.68
66945;BME280;53853;51.982;5.928;2023-12-20T07:34:28;101303.56;;;8.48;80.42
66945;BME280;53853;51.982;5.928;2023-12-20T07:36:58;101311.16;;;8.53;80.61
66945;BME280;53853;51.982;5.928;2023-12-20T07:39:30;101313.81;;;8.53;80.42
66945;BME280;53853;51.982;5.928;2023-12-20T07:42:00;101309.25;;;8.55;80.08
66945;BME280;53853;51.982;5.928;2023-12-20T07:44:30;101307.44;;;8.56;80.49
66945;BME280;53853;51.982;5.928;2023-12-20T07:47:00;101304.78;;;8.56;79.96
66945;BME280;53853;51.982;5.928;2023-12-20T07:49:31;101299.34;;;8.57;80.29
66945;BME280;53853;51.982;5.928;2023-12-20T07:52:01;101302.69;;;8.59;80.12
66945;BME280;53853;51.982;5.928;2023-12-20T07:54:33;101299.09;;;8.60;80.82
66945;BME280;53853;51.982;5.928;2023-12-20T07:57:03;101307.75;;;8.62;81.11
66945;BME280;53853;51.982;5.928;2023-12-20T07:59:33;101307.53;;;8.65;81.56
66945;BME280;53853;51.982;5.928;2023-12-20T08:02:03;101314.28;;;8.69;80.73
66945;BME280;53853;51.982;5.928;2023-12-20T08:04:33;101325.75;;;8.70;81.06
66945;BME280;53853;51.982;5.928;2023-12-20T08:07:04;101333.47;;;8.73;81.50
66945;BME280;53853;51.982;5.928;2023-12-20T08:09:36;101333.22;;;8.76;81.79
66945;BME280;53853;51.982;5.928;2023-12-20T08:12:06;101335.75;;;8.78;81.10
66945;BME280;53853;51.982;5.928;2023-12-20T08:14:36;101339.38;;;8.77;80.99
66945;BME280;53853;51.982;5.928;2023-12-20T08:17:06;101328.59;;;8.78;80.87
66945;BME280;53853;51.982;5.928;2023-12-20T08:19:36;101334.78;;;8.79;81.02
66945;BME280;53853;51.982;5.928;2023-12-20T08:22:06;101330.31;;;8.79;80.14
66945;BME280;53853;51.982;5.928;2023-12-20T08:24:38;101330.31;;;8.79;80.18
66945;BME280;53853;51.982;5.928;2023-12-20T08:27:08;101319.69;;;8.79;80.48
66945;BME280;53853;51.982;5.928;2023-12-20T08:29:38;101331.88;;;8.82;80.72
66945;BME280;53853;51.982;5.928;2023-12-20T08:32:08;101316.63;;;8.84;80.03
66945;BME280;53853;51.982;5.928;2023-12-20T08:34:38;101320.25;;;8.83;79.87
66945;BME280;53853;51.982;5.928;2023-12-20T08:37:08;101314.94;;;8.83;79.76
66945;BME280;53853;51.982;5.928;2023-12-20T08:39:40;101315.66;;;8.85;80.37
66945;BME280;53853;51.982;5.928;2023-12-20T08:42:10;101311.19;;;8.85;80.13
66945;BME280;53853;51.982;5.928;2023-12-20T08:44:40;101303.22;;;8.85;80.31
66945;BME280;53853;51.982;5.928;2023-12-20T08:47:10;101308.53;;;8.85;80.48
66945;BME280;53853;51.982;5.928;2023-12-20T08:49:42;101318.06;;;8.88;80.84
66945;BME280;53853;51.982;5.928;2023-12-20T08:52:13;101304.78;;;8.88;80.41
66945;BME280;53853;51.982;5.928;2023-12-20T08:54:45;101305.50;;;8.90;80.68
66945;BME280;53853;51.982;5.928;2023-12-20T08:57:15;101307.91;;;8.93;80.72
66945;BME280;53853;51.982;5.928;2023-12-20T08:59:45;101296.53;;;8.91;80.66
66945;BME280;53853;51.982;5.928;2023-12-20T09:02:15;101301.03;;;8.91;80.77
66945;BME280;53853;51.982;5.928;2023-12-20T09:04:45;101299.94;;;8.93;80.70
66945;BME280;53853;51.982;5.928;2023-12-20T09:07:24;101297.28;;;8.93;80.55
66945;BME280;53853;51.982;5.928;2023-12-20T09:09:59;101291.97;;;8.93;81.01
66945;BME280;53853;51.982;5.928;2023-12-20T09:12:29;101302.47;;;8.95;81.18
66945;BME280;53853;51.982;5.928;2023-12-20T09:14:59;101313.34;;;8.92;81.10
66945;BME280;53853;51.982;5.928;2023-12-20T09:17:29;101301.16;;;8.89;80.67
66945;BME280;53853;51.982;5.928;2023-12-20T09:19:59;101297.78;;;8.87;81.14
66945;BME280;53853;51.982;5.928;2023-12-20T09:22:29;101308.41;;;8.87;80.97
66945;BME280;53853;51.982;5.928;2023-12-20T09:25:01;101299.00;;;8.83;81.47
66945;BME280;53853;51.982;5.928;2023-12-20T09:27:31;101306.25;;;8.81;81.83
66945;BME280;53853;51.982;5.928;2023-12-20T09:30:01;101301.06;;;8.79;82.11
66945;BME280;53853;51.982;5.928;2023-12-20T09:32:32;101299.50;;;8.77;82.47
66945;BME280;53853;51.982;5.928;2023-12-20T09:35:01;101300.38;;;8.77;82.90
66945;BME280;53853;51.982;5.928;2023-12-20T09:37:32;101303.03;;;8.77;83.10
66945;BME280;53853;51.982;5.928;2023-12-20T09:40:06;101301.31;;;8.76;83.16
66945;BME280;53853;51.982;5.928;2023-12-20T09:42:39;101308.72;;;8.73;83.45
66945;BME280;53853;51.982;5.928;2023-12-20T09:45:15;101306.06;;;8.73;83.87
66945;BME280;53853;51.982;5.928;2023-12-20T09:47:49;101300.88;;;8.71;84.02
66945;BME280;53853;51.982;5.928;2023-12-20T09:50:20;101303.53;;;8.71;84.29
66945;BME280;53853;51.982;5.928;2023-12-20T09:52:52;101307.16;;;8.70;84.31
66945;BME280;53853;51.982;5.928;2023-12-20T09:55:25;101300.25;;;8.67;84.21
66945;BME280;53853;51.982;5.928;2023-12-20T09:57:56;101312.72;;;8.67;84.49
66945;BME280;53853;51.982;5.928;2023-12-20T10:00:26;101309.22;;;8.66;84.74
66945;BME280;53853;51.982;5.928;2023-12-20T10:02:58;101316.19;;;8.67;84.87
66945;BME280;53853;51.982;5.928;2023-12-20T10:05:29;101307.97;;;8.70;84.88
66945;BME280;53853;51.982;5.928;2023-12-20T10:08:00;101318.22;;;8.75;84.92
66945;BME280;53853;51.982;5.928;2023-12-20T10:10:33;101328.03;;;8.75;84.30
66945;BME280;53853;51.982;5.928;2023-12-20T10:13:04;101318.34;;;8.74;84.44
66945;BME280;53853;51.982;5.928;2023-12-20T10:15:36;101322.47;;;8.78;84.45
66945;BME280;53853;51.982;5.928;2023-12-20T10:18:07;101322.22;;;8.81;84.65
66945;BME280;53853;51.982;5.928;2023-12-20T10:20:37;101323.63;;;8.85;84.95
66945;BME280;53853;51.982;5.928;2023-12-20T10:23:07;101332.22;;;8.88;84.99
66945;BME280;53853;51.982;5.928;2023-12-20T10:25:40;101322.88;;;8.94;84.86
66945;BME280;53853;51.982;5.928;2023-12-20T10:28:12;101332.41;;;8.97;85.10
66945;BME280;53853;51.982;5.928;2023-12-20T10:30:44;101328.53;;;9.01;84.90
66945;BME280;53853;51.982;5.928;2023-12-20T10:33:15;101320.28;;;9.04;84.99
66945;BME280;53853;51.982;5.928;2023-12-20T10:35:53;101321.72;;;9.08;85.06
66945;BME280;53853;51.982;5.928;2023-12-20T10:38:23;101314.31;;;9.12;84.89
66945;BME280;53853;51.982;5.928;2023-12-20T10:40:58;101303.31;;;9.16;84.94
66945;BME280;53853;51.982;5.928;2023-12-20T10:43:35;101296.78;;;9.20;85.28
66945;BME280;53853;51.982;5.928;2023-12-20T10:46:29;101301.84;;;9.23;85.17
66945;BME280;53853;51.982;5.928;2023-12-20T10:49:00;101290.06;;;9.26;85.13
66945;BME280;53853;51.982;5.928;2023-12-20T10:51:32;101286.44;;;9.27;85.26
66945;BME280;53853;51.982;5.928;2023-12-20T10:54:03;101293.47;;;9.28;85.26
66945;BME280;53853;51.982;5.928;2023-12-20T10:56:39;101289.69;;;9.31;85.30
66945;BME280;53853;51.982;5.928;2023-12-20T10:59:11;101288.84;;;9.30;85.12
66945;BME280;53853;51.982;5.928;2023-12-20T11:01:45;101288.16;;;9.28;85.24
66945;BME280;53853;51.982;5.928;2023-12-20T11:04:20;101290.69;;;9.30;85.39
66945;BME280;53853;51.982;5.928;2023-12-20T11:06:56;101285.34;;;9.30;85.33
66945;BME280;53853;51.982;5.928;2023-12-20T11:09:35;101286.91;;;9.32;85.73
66945;BME280;53853;51.982;5.928;2023-12-20T11:12:15;101283.97;;;9.35;85.45
66945;BME280;53853;51.982;5.928;2023-12-20T11:14:49;101280.34;;;9.36;85.38
66945;BME280;53853;51.982;5.928;2023-12-20T11:17:19;101285.66;;;9.36;85.49
66945;BME280;53853;51.982;5.928;2023-12-20T11:20:06;101279.53;;;9.36;85.58
66945;BME280;53853;51.982;5.928;2023-12-20T11:22:51;101279.09;;;9.40;85.60
66945;BME280;53853;51.982;5.928;2023-12-20T11:25:23;101273.66;;;9.42;85.61
66945;BME280;53853;51.982;5.928;2023-12-20T11:28:12;101262.88;;;9.43;85.47
66945;BME280;53853;51.982;5.928;2023-12-20T11:30:45;101259.38;;;9.43;84.60
66945;BME280;53853;51.982;5.928;2023-12-20T11:33:16;101257.81;;;9.40;83.98
66945;BME280;53853;51.982;5.928;2023-12-20T11:35:48;101254.91;;;9.43;84.38
66945;BME280;53853;51.982;5.928;2023-12-20T11:38:21;101248.34;;;9.48;84.59
66945;BME280;53853;51.982;5.928;2023-12-20T11:40:51;101232.81;;;9.53;84.99
66945;BME280;53853;51.982;5.928;2023-12-20T11:43:36;101234.00;;;9.60;85.14
66945;BME280;53853;51.982;5.928;2023-12-20T11:46:06;101237.91;;;9.66;85.23
66945;BME280;53853;51.982;5.928;2023-12-20T11:48:38;101242.84;;;9.70;85.41
66945;BME280;53853;51.982;5.928;2023-12-20T11:51:11;101243.56;;;9.72;85.16
66945;BME280;53853;51.982;5.928;2023-12-20T11:53:41;101254.91;;;9.74;85.20
66945;BME280;53853;51.982;5.928;2023-12-20T11:56:12;101258.84;;;9.80;85.43
66945;BME280;53853;51.982;5.928;2023-12-20T11:58:45;101248.78;;;9.84;85.41
66945;BME280;53853;51.982;5.928;2023-12-20T12:01:15;101246.81;;;9.86;85.60
66945;BME280;53853;51.982;5.928;2023-12-20T12:03:45;101244.72;;;9.89;85.60
66945;BME280;53853;51.982;5.928;2023-12-20T12:06:15;101248.94;;;9.92;85.63
66945;BME280;53853;51.982;5.928;2023-12-20T12:08:45;101243.34;;;9.95;85.93
66945;BME280;53853;51.982;5.928;2023-12-20T12:11:15;101229.78;;;9.98;86.14
66945;BME280;53853;51.982;5.928;2023-12-20T12:13:47;101236.75;;;9.99;85.81
66945;BME280;53853;51.982;5.928;2023-12-20T12:16:18;101233.97;;;10.01;85.38
66945;BME280;53853;51.982;5.928;2023-12-20T12:18:56;101227.66;;;10.02;84.40
66945;BME280;53853;51.982;5.928;2023-12-20T12:21:25;101223.03;;;10.04;84.17
66945;BME280;53853;51.982;5.928;2023-12-20T12:24:07;101222.63;;;10.08;82.33
66945;BME280;53853;51.982;5.928;2023-12-20T12:26:37;101218.84;;;10.11;80.80
66945;BME280;53853;51.982;5.928;2023-12-20T12:29:10;101213.13;;;10.15;80.73
66945;BME280;53853;51.982;5.928;2023-12-20T12:31:40;101225.16;;;10.20;80.85
66945;BME280;53853;51.982;5.928;2023-12-20T12:34:10;101216.75;;;10.24;79.78
66945;BME280;53853;51.982;5.928;2023-12-20T12:36:40;101210.59;;;10.24;77.74
66945;BME280;53853;51.982;5.928;2023-12-20T12:39:12;101203.03;;;10.29;77.55
66945;BME280;53853;51.982;5.928;2023-12-20T12:41:43;101195.75;;;10.31;76.94
66945;BME280;53853;51.982;5.928;2023-12-20T12:44:15;101189.44;;;10.32;77.60
66945;BME280;53853;51.982;5.928;2023-12-20T12:46:45;101180.63;;;10.31;76.64
66945;BME280;53853;51.982;5.928;2023-12-20T12:49:17;101177.25;;;10.29;77.15
66945;BME280;53853;51.982;5.928;2023-12-20T12:51:48;101185.66;;;10.25;77.01
66945;BME280;53853;51.982;5.928;2023-12-20T12:54:18;101185.06;;;10.21;78.05
66945;BME280;53853;51.982;5.928;2023-12-20T12:56:47;101183.41;;;10.20;78.40
66945;BME280;53853;51.982;5.928;2023-12-20T12:59:22;101177.50;;;10.16;78.71
66945;BME280;53853;51.982;5.928;2023-12-20T13:01:52;101178.78;;;10.12;78.82
66945;BME280;53853;51.982;5.928;2023-12-20T13:04:22;101178.09;;;10.10;79.39
66945;BME280;53853;51.982;5.928;2023-12-20T13:06:52;101181.44;;;10.12;79.92
66945;BME280;53853;51.982;5.928;2023-12-20T13:09:24;101172.63;;;10.12;78.84
66945;BME280;53853;51.982;5.928;2023-12-20T13:11:54;101147.78;;;10.11;78.85
66945;BME280;53853;51.982;5.928;2023-12-20T13:14:26;101153.69;;;10.15;79.27
66945;BME280;53853;51.982;5.928;2023-12-20T13:16:56;101144.72;;;10.16;79.00
66945;BME280;53853;51.982;5.928;2023-12-20T13:19:26;101147.25;;;10.18;79.26